Airfield :
LOGIN :

Register | Disclaimer

   EN    FR    IT 

 










Legend :    VFR   Marginal VFR   IFR   Intensive IFR   Very Intensive IFR
Visi :
Ceiling :
>= 8 km
>= 3000ft
5 to 8 km
1000 to 3000 ft
1500m to 5 km
500 to 1000 ft
800 to 1500m
200 to 500 ft
< 800m
< 200 ft
Symbols :   Thunderstorms  Fog  Heavy snow  Heavy precipitations  Wind > 20 kt
SIGMETs :     Misc.  Thunderstorms  Icing  Turbulence  Mountain Waves  Volcanic Ashes







- Airport Elevation : 1036 ft
- IATA code : ERF


EDDE - Erfurt

CURRENT METAR :
  • 141720Z 28012KT CAVOK 21/11 Q1015 TEMPO 28015G25KT

EXPIRED METARs :
  • 141650Z 28013KT 9999 FEW036 SCT083 BKN100 21/11 Q1015 TEMPO 29015G25KT
  • 141620Z 28014KT 9999 FEW036 BKN066 22/11 Q1014 TEMPO 28015G25KT
  • 141550Z 28014KT 250V310 9999 FEW036 SCT073 21/13 Q1014 TEMPO 28015G25KT
  • 141520Z 26017KT 9999 FEW036 SCT060 22/13 Q1014 TEMPO 26015G25KT
  • 141450Z 29013KT 9999 SCT036 BKN060 21/12 Q1014 NOSIG

TAF TAF EDDE
Valid from the 14 at 12:00 until the 15 at 12:00 UTC


141100Z 1412/1512 26015KT 9999 BKN040
TEMPO 1412/1415 26015G25KT
PROB30
TEMPO 1412/1416 SHRA BKN030TCU
BECMG 1416/1418 27005KT
No reported NOTAMs for that airfield.



MET'MAP, your aeronautical weather chart ! - Copyright ORBIFLY December 2007 - Disclaimer

ORBIFLY MET'MAP TEAM :

Programming & Development : Alexandra Zaïnal
Concept & Development : Baudouin d'Aumeries
Co-Development & Prog : Marc-Olivier Méhu
Technical & hardware support : Manuel Goepfert

Contact : metmap@orbifly.com




SOURCES & CREDITS :

   NOAA